sensor_id;sensor_type;location;lat;lon;timestamp;P1;durP1;ratioP1;P2;durP2;ratioP2
85208;SDS011;75586;44.496;0.166;2024-01-30T00:15:07;11.03;;;4.83;;
85208;SDS011;75586;44.496;0.166;2024-01-30T00:30:27;10.20;;;4.90;;
85208;SDS011;75586;44.496;0.166;2024-01-30T00:45:47;9.30;;;4.67;;
85208;SDS011;75586;44.496;0.166;2024-01-30T01:01:06;12.87;;;5.17;;
85208;SDS011;75586;44.496;0.166;2024-01-30T01:16:25;15.33;;;5.60;;
85208;SDS011;75586;44.496;0.166;2024-01-30T01:31:45;12.87;;;5.67;;
85208;SDS011;75586;44.496;0.166;2024-01-30T01:47:08;16.50;;;6.53;;
85208;SDS011;75586;44.496;0.166;2024-01-30T02:02:27;11.27;;;5.33;;
85208;SDS011;75586;44.496;0.166;2024-01-30T02:17:46;11.97;;;5.43;;
85208;SDS011;75586;44.496;0.166;2024-01-30T02:33:06;15.10;;;5.77;;
85208;SDS011;75586;44.496;0.166;2024-01-30T02:48:28;10.87;;;5.13;;
85208;SDS011;75586;44.496;0.166;2024-01-30T03:03:48;9.43;;;5.63;;
85208;SDS011;75586;44.496;0.166;2024-01-30T03:19:10;14.23;;;5.57;;
85208;SDS011;75586;44.496;0.166;2024-01-30T03:34:30;12.00;;;5.93;;
85208;SDS011;75586;44.496;0.166;2024-01-30T03:49:50;10.40;;;6.10;;
85208;SDS011;75586;44.496;0.166;2024-01-30T04:05:10;9.27;;;5.70;;
85208;SDS011;75586;44.496;0.166;2024-01-30T04:20:30;12.37;;;6.10;;
85208;SDS011;75586;44.496;0.166;2024-01-30T04:35:49;14.50;;;6.00;;
85208;SDS011;75586;44.496;0.166;2024-01-30T04:51:08;13.23;;;6.60;;
85208;SDS011;75586;44.496;0.166;2024-01-30T05:06:28;20.13;;;7.33;;
85208;SDS011;75586;44.496;0.166;2024-01-30T05:21:48;9.83;;;6.37;;
85208;SDS011;75586;44.496;0.166;2024-01-30T05:37:07;15.23;;;7.10;;
85208;SDS011;75586;44.496;0.166;2024-01-30T05:52:27;22.37;;;7.07;;
85208;SDS011;75586;44.496;0.166;2024-01-30T06:07:47;17.00;;;6.77;;
85208;SDS011;75586;44.496;0.166;2024-01-30T06:23:08;20.83;;;7.37;;
85208;SDS011;75586;44.496;0.166;2024-01-30T06:38:29;21.50;;;9.40;;
85208;SDS011;75586;44.496;0.166;2024-01-30T06:53:48;24.63;;;9.57;;
85208;SDS011;75586;44.496;0.166;2024-01-30T07:09:08;20.17;;;9.47;;
85208;SDS011;75586;44.496;0.166;2024-01-30T07:24:29;22.60;;;9.43;;
85208;SDS011;75586;44.496;0.166;2024-01-30T07:39:49;21.73;;;9.50;;
85208;SDS011;75586;44.496;0.166;2024-01-30T07:55:10;16.07;;;8.47;;
85208;SDS011;75586;44.496;0.166;2024-01-30T08:10:30;11.37;;;6.17;;
85208;SDS011;75586;44.496;0.166;2024-01-30T08:25:53;19.47;;;7.17;;
85208;SDS011;75586;44.496;0.166;2024-01-30T08:41:16;11.73;;;6.90;;
85208;SDS011;75586;44.496;0.166;2024-01-30T08:56:37;7.50;;;4.80;;
85208;SDS011;75586;44.496;0.166;2024-01-30T09:11:59;10.10;;;5.43;;
85208;SDS011;75586;44.496;0.166;2024-01-30T09:27:22;8.20;;;5.43;;
85208;SDS011;75586;44.496;0.166;2024-01-30T09:42:42;7.97;;;4.53;;
85208;SDS011;75586;44.496;0.166;2024-01-30T09:58:03;9.57;;;4.13;;
85208;SDS011;75586;44.496;0.166;2024-01-30T10:13:23;7.93;;;3.70;;
85208;SDS011;75586;44.496;0.166;2024-01-30T10:28:44;9.57;;;3.47;;
85208;SDS011;75586;44.496;0.166;2024-01-30T10:44:05;7.40;;;2.80;;
85208;SDS011;75586;44.496;0.166;2024-01-30T10:59:21;6.73;;;2.80;;
85208;SDS011;75586;44.496;0.166;2024-01-30T11:14:41;7.20;;;3.00;;
85208;SDS011;75586;44.496;0.166;2024-01-30T11:30:02;6.73;;;3.33;;
85208;SDS011;75586;44.496;0.166;2024-01-30T11:45:22;8.47;;;3.83;;
85208;SDS011;75586;44.496;0.166;2024-01-30T12:00:41;7.17;;;2.63;;
85208;SDS011;75586;44.496;0.166;2024-01-30T12:16:03;9.33;;;3.23;;
85208;SDS011;75586;44.496;0.166;2024-01-30T12:31:27;9.40;;;3.00;;
85208;SDS011;75586;44.496;0.166;2024-01-30T12:46:43;6.30;;;2.67;;
85208;SDS011;75586;44.496;0.166;2024-01-30T13:02:03;5.70;;;2.70;;
85208;SDS011;75586;44.496;0.166;2024-01-30T13:17:23;7.77;;;3.00;;
85208;SDS011;75586;44.496;0.166;2024-01-30T13:32:42;5.13;;;3.13;;
85208;SDS011;75586;44.496;0.166;2024-01-30T13:48:01;7.93;;;2.90;;
85208;SDS011;75586;44.496;0.166;2024-01-30T14:03:21;6.57;;;2.20;;
85208;SDS011;75586;44.496;0.166;2024-01-30T14:18:42;5.10;;;2.30;;
85208;SDS011;75586;44.496;0.166;2024-01-30T14:34:03;5.40;;;3.10;;
85208;SDS011;75586;44.496;0.166;2024-01-30T14:49:22;7.47;;;2.67;;
85208;SDS011;75586;44.496;0.166;2024-01-30T15:04:41;6.83;;;2.80;;
85208;SDS011;75586;44.496;0.166;2024-01-30T15:20:01;8.73;;;2.80;;
85208;SDS011;75586;44.496;0.166;2024-01-30T15:35:23;8.10;;;2.97;;
85208;SDS011;75586;44.496;0.166;2024-01-30T15:50:41;11.43;;;2.97;;
85208;SDS011;75586;44.496;0.166;2024-01-30T16:05:58;9.87;;;3.43;;
85208;SDS011;75586;44.496;0.166;2024-01-30T16:21:17;8.40;;;4.30;;
85208;SDS011;75586;44.496;0.166;2024-01-30T16:36:35;11.33;;;3.80;;
85208;SDS011;75586;44.496;0.166;2024-01-30T16:51:56;6.63;;;3.30;;
85208;SDS011;75586;44.496;0.166;2024-01-30T17:07:13;9.30;;;3.53;;
85208;SDS011;75586;44.496;0.166;2024-01-30T17:22:32;7.03;;;3.33;;
85208;SDS011;75586;44.496;0.166;2024-01-30T17:37:52;11.03;;;4.57;;
85208;SDS011;75586;44.496;0.166;2024-01-30T17:53:11;15.43;;;6.20;;
85208;SDS011;75586;44.496;0.166;2024-01-30T18:08:31;15.77;;;6.67;;
85208;SDS011;75586;44.496;0.166;2024-01-30T18:23:50;10.33;;;5.90;;
85208;SDS011;75586;44.496;0.166;2024-01-30T18:39:10;22.23;;;9.50;;
85208;SDS011;75586;44.496;0.166;2024-01-30T18:54:29;14.13;;;8.97;;
85208;SDS011;75586;44.496;0.166;2024-01-30T19:09:50;20.63;;;8.97;;
85208;SDS011;75586;44.496;0.166;2024-01-30T19:25:09;24.13;;;11.27;;
85208;SDS011;75586;44.496;0.166;2024-01-30T19:40:28;18.03;;;9.93;;
85208;SDS011;75586;44.496;0.166;2024-01-30T19:55:46;34.53;;;13.30;;
85208;SDS011;75586;44.496;0.166;2024-01-30T20:11:14;25.47;;;11.30;;
85208;SDS011;75586;44.496;0.166;2024-01-30T20:26:29;22.63;;;10.63;;
85208;SDS011;75586;44.496;0.166;2024-01-30T20:41:50;23.60;;;12.27;;
85208;SDS011;75586;44.496;0.166;2024-01-30T20:57:08;23.97;;;11.20;;
85208;SDS011;75586;44.496;0.166;2024-01-30T21:12:28;26.40;;;11.40;;
85208;SDS011;75586;44.496;0.166;2024-01-30T21:27:47;23.00;;;12.33;;
85208;SDS011;75586;44.496;0.166;2024-01-30T21:43:06;30.23;;;15.27;;
85208;SDS011;75586;44.496;0.166;2024-01-30T21:58:26;30.93;;;15.90;;
85208;SDS011;75586;44.496;0.166;2024-01-30T22:13:46;37.47;;;14.83;;
85208;SDS011;75586;44.496;0.166;2024-01-30T22:29:07;27.40;;;13.30;;
85208;SDS011;75586;44.496;0.166;2024-01-30T22:44:27;21.90;;;9.57;;
85208;SDS011;75586;44.496;0.166;2024-01-30T22:59:48;22.90;;;8.70;;
85208;SDS011;75586;44.496;0.166;2024-01-30T23:15:07;28.37;;;14.00;;
85208;SDS011;75586;44.496;0.166;2024-01-30T23:30:27;45.40;;;21.43;;
85208;SDS011;75586;44.496;0.166;2024-01-30T23:45:46;25.50;;;10.00;;
